createdAt,value
2022-11-17T00:02:13.454Z,6.70
2022-11-17T00:04:40.984Z,6.70
2022-11-17T00:07:09.623Z,6.70
2022-11-17T00:09:37.174Z,6.80
2022-11-17T00:12:29.816Z,6.80
2022-11-17T00:15:01.485Z,6.80
2022-11-17T00:17:29.078Z,6.90
2022-11-17T00:20:16.785Z,6.90
2022-11-17T00:22:44.349Z,6.90
2022-11-17T00:25:11.938Z,6.90
2022-11-17T00:27:39.560Z,6.90
2022-11-17T00:30:08.142Z,6.90
2022-11-17T00:32:55.802Z,6.90
2022-11-17T00:35:23.389Z,6.90
2022-11-17T00:38:10.060Z,7.00
2022-11-17T00:40:38.668Z,6.90
2022-11-17T00:43:06.247Z,6.90
2022-11-17T00:45:33.846Z,7.00
2022-11-17T00:48:02.483Z,6.90
2022-11-17T00:50:30.033Z,6.90
2022-11-17T00:52:57.032Z,7.00
2022-11-17T00:55:24.269Z,7.00
2022-11-17T00:57:51.804Z,7.00
2022-11-17T01:00:21.410Z,7.00
2022-11-17T01:02:49.032Z,7.00
2022-11-17T01:05:16.598Z,7.10
2022-11-17T01:07:44.193Z,7.10
2022-11-17T01:10:11.790Z,7.10
2022-11-17T01:12:39.469Z,7.10
2022-11-17T01:15:06.971Z,7.10
2022-11-17T01:17:34.565Z,7.10
2022-11-17T01:20:02.177Z,7.10
2022-11-17T01:22:30.773Z,7.20
2022-11-17T01:24:58.364Z,7.10
2022-11-17T01:27:25.939Z,7.20
2022-11-17T01:29:53.540Z,7.20
2022-11-17T01:32:21.144Z,7.20
2022-11-17T01:34:48.737Z,7.20
2022-11-17T01:37:22.371Z,7.20
2022-11-17T01:39:49.946Z,7.20
2022-11-17T01:42:22.558Z,7.20
2022-11-17T01:44:59.199Z,7.20
2022-11-17T01:47:29.818Z,7.20
2022-11-17T01:50:00.457Z,7.30
2022-11-17T01:52:28.033Z,7.30
2022-11-17T01:54:56.632Z,7.30
2022-11-17T01:57:27.240Z,7.30
2022-11-17T01:59:59.893Z,7.30
2022-11-17T02:02:27.449Z,7.30
2022-11-17T02:05:00.615Z,7.30
2022-11-17T02:07:30.701Z,7.40
2022-11-17T02:10:00.271Z,7.30
2022-11-17T02:12:27.866Z,7.30
2022-11-17T02:14:56.460Z,7.40
2022-11-17T02:17:26.077Z,7.40
2022-11-17T02:20:16.757Z,7.40
2022-11-17T02:22:56.410Z,7.40
2022-11-17T02:25:28.998Z,7.40
2022-11-17T02:28:03.105Z,7.40
2022-11-17T02:30:49.297Z,7.40
2022-11-17T02:33:21.896Z,7.50
2022-11-17T02:35:59.566Z,7.50
2022-11-17T02:38:42.721Z,7.50
2022-11-17T02:41:19.804Z,7.50
2022-11-17T02:44:04.558Z,7.50
2022-11-17T02:46:40.101Z,7.50
2022-11-17T02:49:12.714Z,7.60
2022-11-17T02:52:00.407Z,7.60
2022-11-17T02:54:31.014Z,7.60
2022-11-17T02:56:58.598Z,7.60
2022-11-17T02:59:28.207Z,7.60
2022-11-17T03:42:25.780Z,7.60
2022-11-17T03:49:11.562Z,7.60
2022-11-17T03:55:14.522Z,7.60
2022-11-17T03:57:51.558Z,7.60
2022-11-17T04:40:02.928Z,7.50
2022-11-17T04:55:07.785Z,7.50
2022-11-17T05:00:54.698Z,7.40
2022-11-17T05:03:50.454Z,7.50
2022-11-17T05:19:13.827Z,7.40
2022-11-17T05:28:18.340Z,7.50
2022-11-17T05:31:34.745Z,7.50
2022-11-17T05:55:39.804Z,7.60
2022-11-17T05:58:45.016Z,7.60
2022-11-17T13:48:23.487Z,11.50
2022-11-17T13:57:41.431Z,11.60
2022-11-17T14:00:21.504Z,11.50
2022-11-17T14:03:08.737Z,11.50
2022-11-17T14:05:56.479Z,11.60
2022-11-17T14:11:22.447Z,11.60
2022-11-17T14:14:10.535Z,11.50
2022-11-17T18:42:55.382Z,7.70
2022-11-17T18:45:26.080Z,7.70
2022-11-17T18:47:56.822Z,7.70
2022-11-17T18:50:32.604Z,7.80
2022-11-17T18:53:06.730Z,7.80
2022-11-17T18:55:38.710Z,7.80
2022-11-17T18:58:17.378Z,7.90
2022-11-17T19:01:00.254Z,8.00
2022-11-17T19:03:32.578Z,8.10
2022-11-17T19:06:01.537Z,8.10
2022-11-17T19:08:35.399Z,8.20
2022-11-17T19:11:06.442Z,8.30
2022-11-17T19:13:38.123Z,8.30
2022-11-17T19:16:07.995Z,8.30
2022-11-17T19:18:46.036Z,8.40
2022-11-17T19:21:21.932Z,8.40
2022-11-17T19:23:55.885Z,8.50
2022-11-17T19:26:39.027Z,8.50
2022-11-17T19:29:17.273Z,8.50
2022-11-17T19:31:48.017Z,8.40
2022-11-17T19:34:23.865Z,8.40
2022-11-17T19:36:57.024Z,8.40
2022-11-17T19:39:31.400Z,8.40
2022-11-17T19:41:59.373Z,8.40
2022-11-17T19:44:30.216Z,8.40
2022-11-17T19:46:59.068Z,8.50
2022-11-17T19:49:28.305Z,8.50
2022-11-17T19:51:59.906Z,8.40
2022-11-17T19:54:30.649Z,8.50
2022-11-17T19:57:08.698Z,8.50
2022-11-17T19:59:54.838Z,8.40
2022-11-17T20:02:40.760Z,8.40
2022-11-17T20:05:16.477Z,8.40
2022-11-17T20:07:59.121Z,8.40
2022-11-17T20:10:30.570Z,8.40
2022-11-17T20:12:58.560Z,8.40
2022-11-17T20:15:34.352Z,8.40
2022-11-17T20:18:04.292Z,8.40
2022-11-17T20:20:34.162Z,8.40
2022-11-17T20:23:02.066Z,8.40
2022-11-17T20:25:34.032Z,8.40
2022-11-17T20:28:02.870Z,8.40
2022-11-17T20:30:30.793Z,8.40
2022-11-17T20:32:58.628Z,8.40
2022-11-17T20:35:27.530Z,8.40
2022-11-17T20:37:55.401Z,8.40
2022-11-17T20:40:23.287Z,8.30
2022-11-17T20:42:51.175Z,8.30
2022-11-17T20:45:19.066Z,8.30
2022-11-17T20:47:47.940Z,8.30
2022-11-17T20:50:16.843Z,8.30
2022-11-17T20:52:44.749Z,8.20
2022-11-17T20:55:13.713Z,8.20
2022-11-17T20:57:43.911Z,8.20
2022-11-17T21:00:12.463Z,8.10
2022-11-17T21:02:40.329Z,8.10
2022-11-17T21:05:22.680Z,8.10
2022-11-17T21:07:54.303Z,8.10
2022-11-17T21:10:23.178Z,8.00
2022-11-17T21:12:59.073Z,8.00
2022-11-17T21:15:38.063Z,8.00
2022-11-17T21:18:40.355Z,7.90
2022-11-17T21:21:23.087Z,7.80
